Time;durP1;ratioP1;P1;durP2;ratioP2;P2;SDS_P1;SDS_P2;PMS_P1;PMS_P2;Temp;Humidity;BMP_temperature;BMP_pressure;BME280_temperature;BME280_humidity;BME280_pressure;Samples;Min_cycle;Max_cycle;Signal;HPM_P1;HPM_P2
2024/01/09 00:01:44;;;;;;;0.20;0.20;;;0.50;86.00;;;;;;5024049;28;20152;-73
2024/01/09 00:04:10;;;;;;;0.75;0.70;;;0.40;86.00;;;;;;5016021;28;20490;-73
2024/01/09 00:06:36;;;;;;;0.10;0.10;;;0.40;86.20;;;;;;5026218;28;20724;-73
2024/01/09 00:09:02;;;;;;;0.10;0.10;;;0.40;86.40;;;;;;5024865;28;20039;-73
2024/01/09 00:11:29;;;;;;;0.00;0.00;;;0.40;86.20;;;;;;5022635;28;20041;-73
2024/01/09 00:13:55;;;;;;;0.10;0.10;;;0.40;86.30;;;;;;5029607;28;20032;-73
2024/01/09 00:16:22;;;;;;;0.10;0.10;;;0.40;85.90;;;;;;5020934;28;20348;-73
2024/01/09 00:18:53;;;;;;;0.43;0.43;;;0.60;86.00;;;;;;5016372;28;20033;-73
2024/01/09 00:21:19;;;;;;;1.08;1.02;;;0.70;86.40;;;;;;5014362;28;20112;-73
2024/01/09 00:23:45;;;;;;;0.00;0.00;;;0.60;86.10;;;;;;5021335;28;20493;-73
2024/01/09 00:26:12;;;;;;;0.10;0.10;;;0.60;87.30;;;;;;5018751;28;20034;-73
2024/01/09 00:28:37;;;;;;;0.10;0.10;;;0.60;86.70;;;;;;5019040;28;20033;-73
2024/01/09 00:31:03;;;;;;;0.10;0.10;;;0.70;86.60;;;;;;5014744;28;20488;-73
2024/01/09 00:33:29;;;;;;;0.10;0.10;;;0.70;86.20;;;;;;5011336;28;20117;-73
2024/01/09 00:35:54;;;;;;;0.10;0.10;;;0.50;86.40;;;;;;5020354;28;20030;-73
2024/01/09 00:38:21;;;;;;;0.00;0.00;;;0.70;86.50;;;;;;5024703;28;20040;-73
2024/01/09 00:40:46;;;;;;;0.10;0.10;;;0.70;86.70;;;;;;5012699;28;20123;-73
2024/01/09 00:43:12;;;;;;;0.10;0.10;;;0.80;86.90;;;;;;5021298;28;20849;-73
2024/01/09 00:45:38;;;;;;;0.10;0.10;;;0.70;86.90;;;;;;5019845;28;20507;-73
2024/01/09 00:48:04;;;;;;;0.10;0.10;;;0.80;86.80;;;;;;5011437;28;20034;-72
2024/01/09 00:50:29;;;;;;;0.10;0.10;;;0.70;86.60;;;;;;5016158;28;20021;-73
2024/01/09 00:52:55;;;;;;;0.10;0.10;;;0.80;86.80;;;;;;5007782;28;20639;-73
2024/01/09 00:55:21;;;;;;;0.90;0.90;;;0.70;86.40;;;;;;5013700;28;20039;-72
2024/01/09 00:57:46;;;;;;;0.10;0.10;;;0.80;87.20;;;;;;5024021;28;20774;-72
2024/01/09 01:00:13;;;;;;;0.10;0.10;;;0.80;87.00;;;;;;5019019;28;20036;-72
2024/01/09 01:02:38;;;;;;;0.10;0.10;;;0.70;86.60;;;;;;5020961;28;20447;-73
2024/01/09 01:05:04;;;;;;;0.03;0.03;;;0.70;86.90;;;;;;5020545;28;20048;-72
2024/01/09 01:07:30;;;;;;;0.10;0.10;;;0.70;87.50;;;;;;5016389;28;20031;-72
2024/01/09 01:09:56;;;;;;;0.10;0.10;;;0.70;87.10;;;;;;5020668;28;20035;-73
2024/01/09 01:12:21;;;;;;;0.20;0.20;;;0.70;87.10;;;;;;5018004;28;20508;-73
2024/01/09 01:14:47;;;;;;;0.10;0.10;;;0.70;87.40;;;;;;5026851;28;20333;-73
2024/01/09 01:17:13;;;;;;;0.10;0.10;;;0.80;87.30;;;;;;5017808;28;20612;-73
2024/01/09 01:19:38;;;;;;;0.10;0.10;;;0.80;87.40;;;;;;5017435;28;20084;-73
2024/01/09 01:22:04;;;;;;;0.10;0.10;;;0.80;87.40;;;;;;5008344;28;20017;-73
2024/01/09 01:24:30;;;;;;;0.10;0.10;;;0.80;87.10;;;;;;5016512;28;20053;-73
2024/01/09 01:26:55;;;;;;;0.10;0.10;;;0.80;87.00;;;;;;5006340;28;20732;-73
2024/01/09 01:29:21;;;;;;;0.10;0.10;;;0.80;87.50;;;;;;5017211;28;20034;-73
2024/01/09 01:31:46;;;;;;;0.10;0.10;;;0.80;87.30;;;;;;5015396;28;20041;-73
2024/01/09 01:34:12;;;;;;;0.10;0.10;;;0.80;87.00;;;;;;5022135;28;20025;-73
2024/01/09 01:36:38;;;;;;;0.10;0.10;;;0.70;86.60;;;;;;5021319;28;20069;-72
2024/01/09 01:39:04;;;;;;;0.10;0.10;;;0.70;86.60;;;;;;5021941;28;20017;-73
2024/01/09 01:41:29;;;;;;;0.40;0.40;;;0.70;86.50;;;;;;5016146;28;20459;-73
2024/01/09 01:43:55;;;;;;;0.10;0.10;;;0.70;86.60;;;;;;5021045;28;20030;-72
2024/01/09 01:46:21;;;;;;;0.10;0.10;;;0.70;86.80;;;;;;5021909;28;20088;-73
2024/01/09 01:48:47;;;;;;;0.10;0.10;;;0.60;87.10;;;;;;5019129;28;20120;-72
2024/01/09 01:51:14;;;;;;;1.17;1.17;;;0.60;87.10;;;;;;5012854;28;20050;-72
2024/01/09 01:53:39;;;;;;;0.10;0.10;;;0.60;87.40;;;;;;5013345;28;20029;-73
2024/01/09 01:56:06;;;;;;;0.52;0.52;;;0.50;87.40;;;;;;5018278;28;20469;-73
2024/01/09 01:58:32;;;;;;;0.30;0.30;;;0.50;87.60;;;;;;5020300;28;20032;-72
2024/01/09 02:00:59;;;;;;;0.10;0.10;;;0.60;87.20;;;;;;5014580;28;20052;-73
2024/01/09 02:03:25;;;;;;;;;;;0.60;87.70;;;;;;5019767;28;20060;-72
2024/01/09 02:05:52;;;;;;;0.10;0.10;;;0.60;88.10;;;;;;5023765;28;20337;-73
2024/01/09 02:08:22;;;;;;;0.10;0.10;;;0.50;87.60;;;;;;5020646;28;20477;-73
2024/01/09 02:10:48;;;;;;;0.10;0.10;;;0.50;87.00;;;;;;5021444;28;20037;-73
2024/01/09 02:13:14;;;;;;;0.10;0.10;;;0.60;87.40;;;;;;5024250;28;20414;-73
2024/01/09 02:15:39;;;;;;;0.20;0.20;;;0.70;87.50;;;;;;5023335;28;20037;-73
2024/01/09 02:18:05;;;;;;;0.10;0.10;;;0.70;87.20;;;;;;5024009;28;20026;-73
2024/01/09 02:20:31;;;;;;;0.00;0.00;;;0.70;87.20;;;;;;5024511;28;20045;-73
2024/01/09 02:22:56;;;;;;;0.20;0.20;;;0.60;87.10;;;;;;5019060;28;20029;-73
2024/01/09 02:25:22;;;;;;;0.10;0.10;;;0.70;87.60;;;;;;5020207;28;20029;-73
2024/01/09 02:27:48;;;;;;;0.10;0.10;;;0.50;87.00;;;;;;5018243;28;20448;-73
2024/01/09 02:30:14;;;;;;;0.22;0.22;;;0.60;87.20;;;;;;5022239;28;20501;-73
2024/01/09 02:32:40;;;;;;;0.10;0.10;;;0.60;87.30;;;;;;5021883;28;20033;-73
2024/01/09 02:35:06;;;;;;;0.10;0.10;;;0.50;87.90;;;;;;5015624;28;20281;-73
2024/01/09 02:37:31;;;;;;;0.10;0.10;;;0.40;87.40;;;;;;5021532;28;20034;-73
2024/01/09 02:40:00;;;;;;;0.00;0.00;;;0.50;87.70;;;;;;5024456;28;20079;-72
2024/01/09 02:42:26;;;;;;;0.00;0.00;;;0.50;88.00;;;;;;5018899;28;20527;-73
2024/01/09 02:44:54;;;;;;;0.10;0.10;;;0.40;88.00;;;;;;5023426;28;20025;-72
2024/01/09 02:47:22;;;;;;;0.10;0.10;;;0.40;89.40;;;;;;5021399;28;20088;-72
2024/01/09 02:49:48;;;;;;;0.10;0.10;;;0.40;89.10;;;;;;5016640;28;20034;-73
2024/01/09 02:52:15;;;;;;;0.15;0.15;;;0.40;89.60;;;;;;5022593;28;20817;-73
2024/01/09 02:54:41;;;;;;;;;;;0.40;89.60;;;;;;5024168;28;20059;-73
2024/01/09 02:57:07;;;;;;;0.00;0.00;;;0.40;89.90;;;;;;5018070;28;20439;-73
2024/01/09 02:59:32;;;;;;;0.10;0.10;;;0.40;89.80;;;;;;5013438;28;20084;-73
2024/01/09 03:01:58;;;;;;;0.65;0.60;;;0.30;89.90;;;;;;5024107;28;20552;-73
2024/01/09 03:04:24;;;;;;;0.05;0.05;;;0.40;89.60;;;;;;5022374;28;20036;-73
2024/01/09 03:06:49;;;;;;;0.10;0.10;;;0.40;89.60;;;;;;5023748;28;20029;-73
2024/01/09 03:09:16;;;;;;;0.05;0.05;;;0.30;89.60;;;;;;5027515;28;20686;-73
2024/01/09 03:11:43;;;;;;;;;;;0.30;89.60;;;;;;5025672;28;20026;-73
2024/01/09 03:14:08;;;;;;;0.00;0.00;;;0.30;90.00;;;;;;5026427;28;19912;-73
2024/01/09 03:16:34;;;;;;;0.05;0.05;;;0.30;90.00;;;;;;5024541;28;20027;-73
2024/01/09 03:19:00;;;;;;;0.10;0.10;;;0.30;89.90;;;;;;5025706;28;20048;-73
2024/01/09 03:21:25;;;;;;;0.10;0.10;;;0.20;90.00;;;;;;5023292;28;20147;-73
2024/01/09 03:23:51;;;;;;;0.25;0.25;;;0.30;89.80;;;;;;5022248;28;20143;-73
2024/01/09 03:26:17;;;;;;;0.20;0.20;;;0.30;89.80;;;;;;5022400;28;20056;-73
2024/01/09 03:28:42;;;;;;;0.10;0.10;;;0.30;89.90;;;;;;5022727;28;20072;-73
2024/01/09 03:31:21;;;;;;;0.10;0.10;;;0.30;89.80;;;;;;5018667;28;20037;-73
2024/01/09 03:33:47;;;;;;;0.77;0.73;;;0.20;88.70;;;;;;5020261;28;20041;-73
2024/01/09 03:36:13;;;;;;;0.10;0.10;;;0.20;89.10;;;;;;5015238;28;20056;-73
2024/01/09 03:38:41;;;;;;;0.10;0.10;;;0.10;89.50;;;;;;5028143;28;20448;-72
2024/01/09 03:41:08;;;;;;;0.10;0.10;;;0.10;89.40;;;;;;5021422;28;20115;-73
2024/01/09 03:43:33;;;;;;;0.10;0.10;;;0.30;89.50;;;;;;5020660;28;20497;-73
2024/01/09 03:45:59;;;;;;;0.05;0.05;;;0.20;89.10;;;;;;5023083;28;20025;-73
2024/01/09 03:48:25;;;;;;;0.10;0.10;;;0.20;88.80;;;;;;5021137;28;20026;-72
2024/01/09 03:50:50;;;;;;;0.30;0.30;;;0.30;88.80;;;;;;5024130;28;20037;-73
2024/01/09 03:53:16;;;;;;;0.10;0.10;;;0.20;88.50;;;;;;5019599;28;20103;-72
2024/01/09 03:55:42;;;;;;;0.05;0.05;;;0.20;88.40;;;;;;5027006;28;21232;-72
2024/01/09 03:58:08;;;;;;;0.10;0.10;;;0.30;88.80;;;;;;5014198;28;20115;-72
2024/01/09 04:00:33;;;;;;;0.10;0.10;;;0.40;88.30;;;;;;5016979;28;20569;-72
2024/01/09 04:03:01;;;;;;;0.10;0.10;;;0.40;88.10;;;;;;5020247;28;20028;-73
2024/01/09 04:05:27;;;;;;;0.10;0.10;;;0.50;88.00;;;;;;5020893;28;20033;-73
2024/01/09 04:07:52;;;;;;;0.10;0.10;;;0.50;87.60;;;;;;5044921;28;20553;-73
2024/01/09 04:10:18;;;;;;;0.03;0.03;;;0.50;87.50;;;;;;5026699;28;20128;-73
2024/01/09 04:12:43;;;;;;;0.55;0.55;;;0.40;87.80;;;;;;5019016;28;20519;-73
2024/01/09 04:15:09;;;;;;;0.10;0.10;;;0.40;88.40;;;;;;5027840;28;20024;-73
2024/01/09 04:17:35;;;;;;;0.10;0.10;;;0.30;89.10;;;;;;5019502;28;20512;-72
2024/01/09 04:20:03;;;;;;;0.25;0.25;;;0.30;89.00;;;;;;5030103;28;20025;-73
2024/01/09 04:22:28;;;;;;;0.10;0.10;;;0.30;88.60;;;;;;5025115;28;20045;-73
2024/01/09 04:24:54;;;;;;;0.10;0.10;;;0.40;88.60;;;;;;5016736;28;20030;-73
2024/01/09 04:27:20;;;;;;;0.35;0.35;;;0.30;88.40;;;;;;5024069;28;20451;-73
2024/01/09 04:29:45;;;;;;;0.10;0.10;;;0.20;88.50;;;;;;5016170;28;20033;-73
2024/01/09 04:32:11;;;;;;;0.10;0.10;;;0.30;88.70;;;;;;5027841;28;20038;-73
2024/01/09 04:34:37;;;;;;;0.10;0.10;;;0.30;88.70;;;;;;5017102;28;20108;-72
2024/01/09 04:37:03;;;;;;;0.30;0.30;;;0.30;88.80;;;;;;5020432;28;20124;-73
2024/01/09 04:39:29;;;;;;;0.10;0.10;;;0.30;88.70;;;;;;5022677;28;20022;-73
2024/01/09 04:41:55;;;;;;;0.57;0.57;;;0.40;89.10;;;;;;5014544;28;20412;-73
2024/01/09 04:44:21;;;;;;;0.20;0.20;;;0.40;88.90;;;;;;5015743;28;20570;-74
2024/01/09 04:46:46;;;;;;;0.10;0.10;;;0.40;88.00;;;;;;5009388;28;20036;-74
2024/01/09 04:49:12;;;;;;;0.40;0.40;;;0.40;88.30;;;;;;5014800;28;20030;-73
2024/01/09 04:51:37;;;;;;;0.10;0.10;;;0.30;88.80;;;;;;5019462;28;20052;-74
2024/01/09 04:54:03;;;;;;;0.10;0.10;;;0.30;89.20;;;;;;5016484;28;20036;-74
2024/01/09 04:56:29;;;;;;;0.00;0.00;;;0.40;88.50;;;;;;5014713;28;20575;-74
2024/01/09 04:58:54;;;;;;;0.10;0.10;;;0.40;89.00;;;;;;5021305;28;20388;-74
2024/01/09 05:01:21;;;;;;;0.10;0.10;;;0.40;88.40;;;;;;5019547;28;20225;-74
2024/01/09 05:03:48;;;;;;;0.10;0.10;;;0.40;88.60;;;;;;5021743;28;20108;-74
2024/01/09 05:06:17;;;;;;;;;;;0.40;89.00;;;;;;5023571;28;20075;-73
2024/01/09 05:08:44;;;;;;;0.10;0.10;;;0.30;89.00;;;;;;5018452;28;19920;-74
2024/01/09 05:11:09;;;;;;;0.90;0.90;;;0.30;89.70;;;;;;5020380;28;20544;-74
2024/01/09 05:13:35;;;;;;;0.10;0.10;;;0.30;89.40;;;;;;5018643;28;20037;-74
2024/01/09 05:16:01;;;;;;;0.10;0.10;;;0.20;89.30;;;;;;5019117;28;20037;-73
2024/01/09 05:18:26;;;;;;;0.00;0.00;;;0.20;89.20;;;;;;5021502;28;20100;-73
2024/01/09 05:20:52;;;;;;;0.10;0.10;;;0.20;89.20;;;;;;5026196;28;20160;-73
2024/01/09 05:23:18;;;;;;;0.10;0.10;;;0.10;89.60;;;;;;5020073;28;20033;-73
2024/01/09 05:25:43;;;;;;;0.10;0.10;;;0.10;88.50;;;;;;5018028;28;20038;-73
2024/01/09 05:28:09;;;;;;;0.10;0.10;;;0.10;89.80;;;;;;5018318;28;20030;-73
2024/01/09 05:30:35;;;;;;;0.10;0.10;;;0.10;89.80;;;;;;5011070;28;20034;-74
2024/01/09 05:33:00;;;;;;;0.28;0.28;;;0.10;89.70;;;;;;5021898;28;20040;-73
2024/01/09 05:35:26;;;;;;;0.08;0.08;;;0.20;89.30;;;;;;5017626;28;20180;-73
2024/01/09 05:37:52;;;;;;;0.10;0.10;;;0.20;89.40;;;;;;5017722;28;20643;-73
2024/01/09 05:40:17;;;;;;;0.10;0.10;;;0.30;89.00;;;;;;5016217;28;20032;-73
2024/01/09 05:42:43;;;;;;;0.10;0.10;;;0.30;86.40;;;;;;5023417;28;20053;-73
2024/01/09 05:45:10;;;;;;;0.10;0.10;;;0.30;84.80;;;;;;5024051;28;20104;-74
2024/01/09 05:47:36;;;;;;;;;;;0.50;85.20;;;;;;5024527;28;20076;-73
2024/01/09 05:50:02;;;;;;;0.50;0.50;;;0.40;86.30;;;;;;5027384;28;19920;-73
2024/01/09 05:52:27;;;;;;;0.10;0.10;;;0.30;86.10;;;;;;5019331;28;20128;-73
2024/01/09 05:54:53;;;;;;;0.00;0.00;;;0.30;86.20;;;;;;5021754;28;20739;-73
2024/01/09 05:57:19;;;;;;;0.10;0.10;;;0.30;84.10;;;;;;5023390;28;20030;-74
2024/01/09 05:59:44;;;;;;;0.10;0.10;;;0.40;83.70;;;;;;5023834;28;20037;-73
2024/01/09 06:02:10;;;;;;;1.85;1.75;;;0.50;84.10;;;;;;5023529;28;20678;-74
2024/01/09 06:04:36;;;;;;;0.00;0.00;;;0.30;85.00;;;;;;5020233;28;20600;-73
2024/01/09 06:07:02;;;;;;;0.00;0.00;;;0.40;85.50;;;;;;5018355;28;20128;-73
2024/01/09 06:09:28;;;;;;;0.00;0.00;;;0.40;86.00;;;;;;5019585;28;20067;-74
2024/01/09 06:11:53;;;;;;;0.22;0.22;;;0.40;86.60;;;;;;5023539;28;20108;-74
2024/01/09 06:14:20;;;;;;;0.10;0.10;;;0.40;86.80;;;;;;5022734;28;20554;-74
2024/01/09 06:16:45;;;;;;;0.10;0.10;;;0.30;87.50;;;;;;5027657;28;20064;-74
2024/01/09 06:19:11;;;;;;;0.05;0.05;;;0.30;87.90;;;;;;5020316;28;20058;-74
2024/01/09 06:21:37;;;;;;;0.13;0.13;;;0.40;86.20;;;;;;5020891;28;20100;-74
2024/01/09 06:24:03;;;;;;;0.10;0.10;;;0.50;83.90;;;;;;5023274;28;20081;-74
2024/01/09 06:26:29;;;;;;;0.10;0.10;;;0.30;85.70;;;;;;5019975;28;20033;-74
2024/01/09 06:28:55;;;;;;;0.10;0.10;;;0.20;88.40;;;;;;5020199;28;20562;-74
2024/01/09 06:31:20;;;;;;;0.00;0.00;;;0.00;88.50;;;;;;5021697;28;20033;-74
2024/01/09 06:33:46;;;;;;;0.10;0.10;;;-0.10;87.70;;;;;;5019407;28;20116;-74
2024/01/09 06:36:12;;;;;;;0.10;0.10;;;0.00;85.10;;;;;;5017737;28;20068;-74
2024/01/09 06:38:37;;;;;;;0.10;0.10;;;0.10;84.00;;;;;;5026792;28;20033;-74
2024/01/09 06:41:03;;;;;;;0.10;0.10;;;0.20;83.10;;;;;;5018956;28;20061;-73
2024/01/09 06:43:29;;;;;;;0.10;0.10;;;0.10;84.50;;;;;;5015329;28;20631;-74
2024/01/09 06:45:55;;;;;;;0.10;0.10;;;0.10;85.20;;;;;;5018128;28;20021;-74
2024/01/09 06:48:20;;;;;;;0.10;0.10;;;0.00;85.80;;;;;;5023545;28;20091;-74
2024/01/09 06:50:46;;;;;;;0.10;0.10;;;0.10;85.90;;;;;;5020353;28;20164;-76
2024/01/09 06:53:12;;;;;;;0.10;0.10;;;0.10;85.60;;;;;;5020763;28;20041;-76
2024/01/09 06:55:38;;;;;;;0.10;0.10;;;0.20;86.30;;;;;;5012290;28;20033;-75
2024/01/09 06:58:04;;;;;;;0.00;0.00;;;0.10;87.10;;;;;;5011164;28;20030;-76
2024/01/09 07:00:29;;;;;;;0.10;0.10;;;0.20;86.70;;;;;;5022869;28;20077;-75
2024/01/09 07:02:55;;;;;;;0.38;0.38;;;0.20;86.90;;;;;;5016975;28;20054;-76
2024/01/09 07:05:21;;;;;;;0.10;0.10;;;0.20;86.70;;;;;;5016259;28;20030;-76
2024/01/09 07:07:46;;;;;;;0.10;0.10;;;0.20;86.30;;;;;;5017354;28;20092;-75
2024/01/09 07:10:13;;;;;;;0.10;0.10;;;0.20;86.40;;;;;;5022884;28;20039;-75
2024/01/09 07:12:38;;;;;;;6.10;3.83;;;0.10;85.80;;;;;;5023071;28;20485;-75
2024/01/09 07:15:07;;;;;;;0.10;0.10;;;0.20;86.10;;;;;;5024592;28;20079;-75
2024/01/09 07:17:33;;;;;;;0.03;0.03;;;0.30;86.10;;;;;;5020778;28;20021;-75
2024/01/09 07:19:59;;;;;;;0.20;0.20;;;0.20;87.10;;;;;;5023603;28;20564;-75
2024/01/09 07:22:25;;;;;;;0.00;0.00;;;0.10;86.80;;;;;;5019016;28;20096;-75
2024/01/09 07:24:50;;;;;;;0.10;0.10;;;0.00;88.00;;;;;;5021341;28;20026;-75
2024/01/09 07:27:16;;;;;;;0.10;0.10;;;0.00;87.50;;;;;;5022484;28;20134;-75
2024/01/09 07:29:41;;;;;;;0.10;0.10;;;-0.20;88.10;;;;;;5011132;28;20552;-75
2024/01/09 07:32:07;;;;;;;0.10;0.10;;;-0.20;88.00;;;;;;5023925;28;20057;-75
2024/01/09 07:34:33;;;;;;;0.10;0.10;;;-0.10;85.60;;;;;;5011831;28;20536;-77
2024/01/09 07:36:58;;;;;;;0.10;0.10;;;-0.10;85.10;;;;;;5017079;28;20079;-75
2024/01/09 07:39:24;;;;;;;0.00;0.00;;;-0.10;85.50;;;;;;5007208;28;20036;-75
2024/01/09 07:41:50;;;;;;;0.10;0.10;;;-0.10;85.50;;;;;;5017035;28;20050;-75
2024/01/09 07:44:17;;;;;;;0.00;0.00;;;-0.20;85.80;;;;;;5006080;28;20032;-75
2024/01/09 07:46:43;;;;;;;;;;;-0.20;86.20;;;;;;5022815;28;20029;-75
2024/01/09 07:49:08;;;;;;;0.10;0.10;;;-0.20;85.30;;;;;;5012213;28;19921;-74
2024/01/09 07:51:34;;;;;;;0.10;0.10;;;-0.20;85.50;;;;;;5008515;28;20034;-75
2024/01/09 07:54:00;;;;;;;0.10;0.10;;;-0.10;86.40;;;;;;5008548;28;20711;-75
2024/01/09 07:56:25;;;;;;;0.08;0.08;;;-0.10;86.30;;;;;;5010341;28;20752;-75
2024/01/09 07:58:51;;;;;;;0.10;0.10;;;-0.10;86.00;;;;;;5018797;28;20143;-75
2024/01/09 08:01:17;;;;;;;0.10;0.10;;;-0.10;85.40;;;;;;5012679;28;20389;-75
2024/01/09 08:03:43;;;;;;;0.10;0.10;;;-0.20;84.40;;;;;;5015766;28;20024;-75
2024/01/09 08:06:14;;;;;;;0.00;0.00;;;-0.20;83.70;;;;;;5015862;28;20100;-75
2024/01/09 08:08:40;;;;;;;0.10;0.10;;;0.00;82.70;;;;;;5016350;28;20168;-75
2024/01/09 08:11:06;;;;;;;0.10;0.10;;;0.10;82.60;;;;;;5021017;28;20037;-75
2024/01/09 08:13:32;;;;;;;0.10;0.10;;;0.30;82.70;;;;;;5019863;28;20869;-75
2024/01/09 08:15:57;;;;;;;0.20;0.20;;;0.40;82.90;;;;;;5027181;28;20048;-75
2024/01/09 08:18:23;;;;;;;0.10;0.10;;;0.40;81.80;;;;;;5014608;28;20497;-75
2024/01/09 08:20:49;;;;;;;0.10;0.10;;;0.50;81.40;;;;;;5004947;28;20037;-75
2024/01/09 08:23:15;;;;;;;0.10;0.10;;;0.50;82.20;;;;;;5022010;28;20528;-75
2024/01/09 08:25:41;;;;;;;0.00;0.00;;;0.40;81.40;;;;;;5011132;28;20026;-75
2024/01/09 08:28:08;;;;;;;0.60;0.60;;;0.40;82.20;;;;;;5016611;28;20107;-75
2024/01/09 08:30:34;;;;;;;0.10;0.10;;;0.40;82.40;;;;;;5006710;28;20037;-75
2024/01/09 08:32:59;;;;;;;0.10;0.10;;;0.50;82.10;;;;;;5027890;28;20068;-75
2024/01/09 08:35:25;;;;;;;0.30;0.30;;;0.40;82.40;;;;;;5017192;28;20026;-75
2024/01/09 08:37:51;;;;;;;0.10;0.10;;;0.30;82.90;;;;;;5024135;28;20017;-75
2024/01/09 08:40:16;;;;;;;0.10;0.10;;;0.30;82.80;;;;;;5026342;28;20037;-76
2024/01/09 08:42:42;;;;;;;0.30;0.30;;;0.20;82.90;;;;;;5011249;28;20092;-75
2024/01/09 08:45:08;;;;;;;4.38;1.48;;;0.20;82.50;;;;;;5022154;28;20104;-75
2024/01/09 08:47:35;;;;;;;0.10;0.10;;;0.30;83.60;;;;;;5022342;28;20087;-75
2024/01/09 08:50:02;;;;;;;0.00;0.00;;;0.30;83.70;;;;;;5022487;28;20128;-75
2024/01/09 08:52:27;;;;;;;;;;;0.30;82.60;;;;;;5011917;28;20275;-75
2024/01/09 08:54:53;;;;;;;0.07;0.07;;;0.20;82.00;;;;;;5009272;28;19909;-75
2024/01/09 08:57:22;;;;;;;0.10;0.10;;;0.30;81.90;;;;;;5013530;28;20667;-75
2024/01/09 08:59:48;;;;;;;0.03;0.03;;;0.30;81.60;;;;;;5016585;28;20599;-75
2024/01/09 09:02:14;;;;;;;0.22;0.22;;;0.50;81.30;;;;;;5022853;28;20388;-75
2024/01/09 09:04:40;;;;;;;0.15;0.15;;;0.50;81.50;;;;;;5016852;28;20029;-75
2024/01/09 09:07:06;;;;;;;0.10;0.10;;;0.50;81.20;;;;;;5020819;28;20026;-75
2024/01/09 09:09:34;;;;;;;0.10;0.10;;;0.50;81.20;;;;;;5022899;28;20377;-75
2024/01/09 09:12:01;;;;;;;0.05;0.05;;;0.50;80.40;;;;;;5019746;28;20831;-75
2024/01/09 09:14:27;;;;;;;0.55;0.55;;;0.70;80.50;;;;;;5014439;28;20022;-75
2024/01/09 09:16:52;;;;;;;0.10;0.10;;;0.80;80.40;;;;;;5030062;28;20034;-75
2024/01/09 09:19:22;;;;;;;0.10;0.10;;;0.90;80.60;;;;;;5009617;28;20133;-75
2024/01/09 09:21:48;;;;;;;0.85;0.40;;;0.80;81.10;;;;;;5016609;28;20044;-75
2024/01/09 09:24:14;;;;;;;0.10;0.10;;;0.90;80.70;;;;;;5021048;28;20446;-75
2024/01/09 09:26:39;;;;;;;0.10;0.10;;;1.00;79.80;;;;;;5004895;28;20034;-75
2024/01/09 09:29:05;;;;;;;0.10;0.10;;;1.10;79.60;;;;;;5007202;28;20030;-75
2024/01/09 09:31:31;;;;;;;0.10;0.10;;;1.00;78.50;;;;;;5011859;28;20061;-75
2024/01/09 09:33:56;;;;;;;0.10;0.10;;;1.20;78.80;;;;;;5022396;28;20029;-75
2024/01/09 09:36:22;;;;;;;0.50;0.50;;;1.30;78.40;;;;;;5011736;28;20059;-75
2024/01/09 09:38:48;;;;;;;0.10;0.10;;;1.40;78.40;;;;;;5030256;28;20029;-75
2024/01/09 09:41:16;;;;;;;0.35;0.35;;;1.20;78.00;;;;;;5018091;28;20118;-75
2024/01/09 09:43:55;;;;;;;0.10;0.10;;;1.10;77.90;;;;;;5017186;28;20022;-75
2024/01/09 09:46:30;;;;;;;0.10;0.10;;;1.20;79.20;;;;;;5006967;28;20038;-75
2024/01/09 09:48:56;;;;;;;0.10;0.10;;;1.20;79.60;;;;;;5017983;28;20167;-75
2024/01/09 09:51:23;;;;;;;0.10;0.10;;;1.30;80.50;;;;;;5014403;28;20121;-75
2024/01/09 09:53:50;;;;;;;0.20;0.20;;;1.10;80.30;;;;;;5022294;28;20033;-75
2024/01/09 09:56:16;;;;;;;0.05;0.05;;;1.00;80.50;;;;;;5014400;28;20064;-75
2024/01/09 09:58:42;;;;;;;0.10;0.10;;;0.90;81.10;;;;;;5012700;28;20144;-75
2024/01/09 10:01:14;;;;;;;0.00;0.00;;;0.90;80.80;;;;;;5013877;28;20033;-75
2024/01/09 10:03:56;;;;;;;0.10;0.10;;;0.70;80.90;;;;;;5014448;28;20030;-75
2024/01/09 10:06:22;;;;;;;0.10;0.10;;;0.80;80.10;;;;;;5013159;28;20024;-75
2024/01/09 10:08:49;;;;;;;0.10;0.10;;;1.00;80.10;;;;;;5016490;28;20025;-75
2024/01/09 10:11:15;;;;;;;0.10;0.10;;;1.10;79.50;;;;;;5017029;28;20029;-75
2024/01/09 10:13:42;;;;;;;0.10;0.10;;;1.00;80.00;;;;;;5014268;28;20041;-75
2024/01/09 10:16:08;;;;;;;0.10;0.10;;;1.10;79.40;;;;;;5030000;28;20931;-75
2024/01/09 10:18:35;;;;;;;0.10;0.10;;;1.00;79.20;;;;;;5012974;28;20516;-75
2024/01/09 10:21:03;;;;;;;0.20;0.20;;;1.10;78.90;;;;;;5003902;28;20033;-75
2024/01/09 10:23:29;;;;;;;0.10;0.10;;;1.20;78.60;;;;;;5015872;28;20108;-75
2024/01/09 10:25:55;;;;;;;0.10;0.10;;;1.00;77.90;;;;;;5022131;28;20033;-75
2024/01/09 10:28:22;;;;;;;0.10;0.10;;;1.00;77.90;;;;;;5015819;28;20041;-75
2024/01/09 10:30:52;;;;;;;0.30;0.30;;;1.00;79.40;;;;;;5014580;28;20029;-75
2024/01/09 10:33:17;;;;;;;0.10;0.10;;;1.10;78.30;;;;;;5022506;28;20038;-75
2024/01/09 10:35:43;;;;;;;0.17;0.17;;;1.40;78.10;;;;;;5024359;28;20076;-75
2024/01/09 10:38:10;;;;;;;0.10;0.10;;;1.50;78.20;;;;;;5019680;28;20028;-75
2024/01/09 10:40:36;;;;;;;0.20;0.20;;;1.50;79.30;;;;;;5021015;28;20096;-75
2024/01/09 10:43:02;;;;;;;0.10;0.10;;;1.60;77.80;;;;;;5017303;28;20034;-75
2024/01/09 10:45:30;;;;;;;0.10;0.10;;;1.50;76.80;;;;;;5014680;28;20034;-75
2024/01/09 10:47:58;;;;;;;0.08;0.08;;;1.50;76.60;;;;;;5019051;28;20026;-75
2024/01/09 10:50:24;;;;;;;0.00;0.00;;;1.50;76.80;;;;;;5023581;28;20026;-75
2024/01/09 10:52:51;;;;;;;0.10;0.10;;;1.50;76.70;;;;;;5023464;28;20464;-75
2024/01/09 10:55:19;;;;;;;0.10;0.10;;;1.40;76.70;;;;;;5016913;28;20040;-74
2024/01/09 10:57:47;;;;;;;0.10;0.10;;;1.30;76.80;;;;;;5012726;28;20057;-74
2024/01/09 11:00:13;;;;;;;0.10;0.10;;;1.40;76.20;;;;;;5017671;28;20036;-74
2024/01/09 11:02:39;;;;;;;0.10;0.10;;;1.50;76.70;;;;;;5018657;28;20052;-74
2024/01/09 11:05:06;;;;;;;0.10;0.10;;;1.70;76.40;;;;;;5019033;28;20025;-74
2024/01/09 11:07:32;;;;;;;;;;;1.70;75.60;;;;;;5020172;28;20033;-74
2024/01/09 11:10:00;;;;;;;0.10;0.10;;;1.80;75.80;;;;;;5018951;28;19917;-74
2024/01/09 11:12:33;;;;;;;0.10;0.10;;;1.90;75.80;;;;;;5019525;28;20109;-75
2024/01/09 11:15:12;;;;;;;0.40;0.32;;;1.70;75.90;;;;;;5024403;28;20094;-75
2024/01/09 11:17:40;;;;;;;0.10;0.10;;;1.30;75.30;;;;;;5024556;28;20126;-74
2024/01/09 11:20:07;;;;;;;0.10;0.10;;;1.40;76.40;;;;;;5024281;28;20036;-74
2024/01/09 11:22:36;;;;;;;0.10;0.10;;;1.70;75.80;;;;;;5018444;28;20838;-74
2024/01/09 11:25:09;;;;;;;0.10;0.10;;;1.60;75.50;;;;;;5013971;28;20037;-75
2024/01/09 11:27:42;;;;;;;0.10;0.10;;;1.60;75.60;;;;;;5012840;28;20028;-75
2024/01/09 11:30:11;;;;;;;0.10;0.10;;;1.70;75.10;;;;;;5023399;28;20769;-74
2024/01/09 11:32:40;;;;;;;0.10;0.10;;;1.80;75.30;;;;;;5013389;28;20045;-74
2024/01/09 11:35:19;;;;;;;0.10;0.10;;;2.00;74.80;;;;;;5014646;28;20029;-74
2024/01/09 11:37:49;;;;;;;0.10;0.10;;;2.20;74.90;;;;;;5022312;28;20072;-74
2024/01/09 11:40:18;;;;;;;0.10;0.10;;;2.10;76.10;;;;;;5016578;28;20112;-74
2024/01/09 11:42:44;;;;;;;0.50;0.50;;;1.70;75.60;;;;;;5008597;28;20509;-74
2024/01/09 11:45:12;;;;;;;0.10;0.10;;;1.70;76.10;;;;;;5011591;28;20033;-74
2024/01/09 11:47:42;;;;;;;0.90;0.90;;;1.60;76.60;;;;;;5010545;28;20038;-75
2024/01/09 11:50:11;;;;;;;0.10;0.10;;;1.60;76.00;;;;;;5013297;28;20041;-74
2024/01/09 11:52:40;;;;;;;0.35;0.35;;;1.70;76.70;;;;;;5024203;28;20057;-74
2024/01/09 11:55:07;;;;;;;0.10;0.10;;;1.90;76.00;;;;;;5016399;28;20140;-75
2024/01/09 11:57:34;;;;;;;0.10;0.10;;;2.00;75.00;;;;;;5018418;28;20026;-74
2024/01/09 12:00:01;;;;;;;;;;;2.10;74.80;;;;;;5019846;28;20080;-74
2024/01/09 12:02:26;;;;;;;0.73;0.57;;;2.10;75.00;;;;;;5018379;28;20617;-74
2024/01/09 12:04:53;;;;;;;0.10;0.10;;;2.00;74.70;;;;;;5016450;28;20087;-74
2024/01/09 12:07:19;;;;;;;0.10;0.10;;;2.20;74.80;;;;;;5023623;28;20021;-75
2024/01/09 12:09:48;;;;;;;0.10;0.10;;;2.20;74.80;;;;;;5018523;28;20030;-74
2024/01/09 12:12:22;;;;;;;0.10;0.10;;;2.30;75.20;;;;;;5023041;28;20940;-74
2024/01/09 12:14:55;;;;;;;0.10;0.10;;;2.20;75.80;;;;;;5018387;28;20432;-74
2024/01/09 12:17:24;;;;;;;0.10;0.10;;;2.20;75.10;;;;;;5025619;28;20026;-75
2024/01/09 12:19:53;;;;;;;0.10;0.10;;;2.10;75.10;;;;;;5022829;28;20026;-74
2024/01/09 12:22:20;;;;;;;0.10;0.10;;;2.00;75.50;;;;;;5022286;28;20515;-75
2024/01/09 12:24:50;;;;;;;0.10;0.10;;;2.20;75.00;;;;;;5017487;28;20482;-74
2024/01/09 12:27:17;;;;;;;1.55;1.55;;;2.00;74.90;;;;;;5005670;28;20030;-74
2024/01/09 12:29:42;;;;;;;0.10;0.10;;;1.80;74.90;;;;;;5022538;28;20108;-74
2024/01/09 12:32:09;;;;;;;0.10;0.10;;;1.80;75.80;;;;;;5011925;28;20421;-74
2024/01/09 12:34:35;;;;;;;0.15;0.15;;;1.80;75.30;;;;;;5005705;28;20032;-74
2024/01/09 12:37:05;;;;;;;0.10;0.10;;;2.20;76.00;;;;;;5007148;28;20038;-75
2024/01/09 12:39:31;;;;;;;0.10;0.10;;;2.20;74.80;;;;;;5022211;28;20468;-75
2024/01/09 12:42:12;;;;;;;0.10;0.10;;;2.20;75.20;;;;;;5010720;28;20057;-74
2024/01/09 12:44:38;;;;;;;0.10;0.10;;;2.10;76.20;;;;;;5006652;28;20044;-74
2024/01/09 12:47:06;;;;;;;0.10;0.10;;;2.10;75.50;;;;;;5019905;28;20029;-74
2024/01/09 12:49:45;;;;;;;0.10;0.10;;;2.30;75.50;;;;;;5006170;28;20026;-74
2024/01/09 12:52:14;;;;;;;0.10;0.10;;;2.40;75.00;;;;;;5010403;28;20026;-75
2024/01/09 12:54:43;;;;;;;0.10;0.10;;;2.40;74.60;;;;;;5022348;28;20029;-75